sensor_id;sensor_type;location;lat;lon;timestamp;pressure;altitude;pressure_sealevel;temperature
67966;BMP280;54749;47.850;9.002;2023-04-06T00:00:48;96131.66;;;-0.40
67966;BMP280;54749;47.850;9.002;2023-04-06T00:03:17;96132.66;;;-0.45
67966;BMP280;54749;47.850;9.002;2023-04-06T00:05:46;96131.09;;;-0.48
67966;BMP280;54749;47.850;9.002;2023-04-06T00:08:14;96138.47;;;-0.46
67966;BMP280;54749;47.850;9.002;2023-04-06T00:10:41;96127.41;;;-0.36
67966;BMP280;54749;47.850;9.002;2023-04-06T00:13:08;96134.75;;;-0.34
67966;BMP280;54749;47.850;9.002;2023-04-06T00:15:36;96116.41;;;-0.30
67966;BMP280;54749;47.850;9.002;2023-04-06T00:18:03;96119.66;;;-0.28
67966;BMP280;54749;47.850;9.002;2023-04-06T00:20:30;96124.63;;;-0.28
67966;BMP280;54749;47.850;9.002;2023-04-06T00:22:58;96117.16;;;-0.26
67966;BMP280;54749;47.850;9.002;2023-04-06T00:25:25;96122.03;;;-0.25
67966;BMP280;54749;47.850;9.002;2023-04-06T00:27:52;96121.22;;;-0.25
67966;BMP280;54749;47.850;9.002;2023-04-06T00:30:19;96124.75;;;-0.31
67966;BMP280;54749;47.850;9.002;2023-04-06T00:32:46;96113.25;;;-0.35
67966;BMP280;54749;47.850;9.002;2023-04-06T00:35:14;96124.91;;;-0.36
67966;BMP280;54749;47.850;9.002;2023-04-06T00:37:42;96116.91;;;-0.44
67966;BMP280;54749;47.850;9.002;2023-04-06T00:40:09;96122.81;;;-0.48
67966;BMP280;54749;47.850;9.002;2023-04-06T00:42:37;96114.75;;;-0.54
67966;BMP280;54749;47.850;9.002;2023-04-06T00:45:04;96118.19;;;-0.58
67966;BMP280;54749;47.850;9.002;2023-04-06T00:47:32;96121.59;;;-0.61
67966;BMP280;54749;47.850;9.002;2023-04-06T00:50:01;96118.22;;;-0.60
67966;BMP280;54749;47.850;9.002;2023-04-06T00:52:29;96109.19;;;-0.61
67966;BMP280;54749;47.850;9.002;2023-04-06T00:54:56;96104.53;;;-0.71
67966;BMP280;54749;47.850;9.002;2023-04-06T00:57:23;96099.72;;;-0.75
67966;BMP280;54749;47.850;9.002;2023-04-06T00:59:54;96109.63;;;-0.75
67966;BMP280;54749;47.850;9.002;2023-04-06T01:02:23;96097.25;;;-0.75
67966;BMP280;54749;47.850;9.002;2023-04-06T01:04:53;96098.09;;;-0.76
67966;BMP280;54749;47.850;9.002;2023-04-06T01:07:34;96095.75;;;-0.81
67966;BMP280;54749;47.850;9.002;2023-04-06T01:10:10;96097.63;;;-0.87
67966;BMP280;54749;47.850;9.002;2023-04-06T01:12:38;96092.78;;;-0.91
67966;BMP280;54749;47.850;9.002;2023-04-06T01:15:13;96092.16;;;-0.98
67966;BMP280;54749;47.850;9.002;2023-04-06T01:17:47;96091.44;;;-1.01
67966;BMP280;54749;47.850;9.002;2023-04-06T01:20:16;96093.41;;;-1.12
67966;BMP280;54749;47.850;9.002;2023-04-06T01:22:43;96100.16;;;-1.17
67966;BMP280;54749;47.850;9.002;2023-04-06T01:25:12;96088.00;;;-1.24
67966;BMP280;54749;47.850;9.002;2023-04-06T01:27:53;96076.38;;;-1.22
67966;BMP280;54749;47.850;9.002;2023-04-06T01:30:24;96080.59;;;-1.25
67966;BMP280;54749;47.850;9.002;2023-04-06T01:32:56;96078.25;;;-1.30
67966;BMP280;54749;47.850;9.002;2023-04-06T01:35:48;96080.06;;;-1.35
67966;BMP280;54749;47.850;9.002;2023-04-06T01:38:18;96076.91;;;-1.40
67966;BMP280;54749;47.850;9.002;2023-04-06T01:40:47;96093.47;;;-1.41
67966;BMP280;54749;47.850;9.002;2023-04-06T01:43:17;96073.75;;;-1.44
67966;BMP280;54749;47.850;9.002;2023-04-06T01:46:13;96080.59;;;-1.52
67966;BMP280;54749;47.850;9.002;2023-04-06T01:48:42;96070.84;;;-1.58
67966;BMP280;54749;47.850;9.002;2023-04-06T01:51:21;96077.63;;;-1.64
67966;BMP280;54749;47.850;9.002;2023-04-06T01:53:53;96079.38;;;-1.68
67966;BMP280;54749;47.850;9.002;2023-04-06T01:56:25;96048.09;;;-1.70
67966;BMP280;54749;47.850;9.002;2023-04-06T01:59:10;96068.72;;;-1.70
67966;BMP280;54749;47.850;9.002;2023-04-06T02:01:41;96063.81;;;-1.73
67966;BMP280;54749;47.850;9.002;2023-04-06T02:04:08;96046.59;;;-1.75
67966;BMP280;54749;47.850;9.002;2023-04-06T02:06:36;96058.19;;;-1.77
67966;BMP280;54749;47.850;9.002;2023-04-06T02:09:05;96060.75;;;-1.80
67966;BMP280;54749;47.850;9.002;2023-04-06T02:11:33;96061.69;;;-1.84
67966;BMP280;54749;47.850;9.002;2023-04-06T02:14:01;96052.59;;;-1.84
67966;BMP280;54749;47.850;9.002;2023-04-06T02:16:32;96048.47;;;-1.83
67966;BMP280;54749;47.850;9.002;2023-04-06T02:18:59;96052.75;;;-1.90
67966;BMP280;54749;47.850;9.002;2023-04-06T02:21:27;96035.53;;;-1.92
67966;BMP280;54749;47.850;9.002;2023-04-06T02:23:53;96054.59;;;-1.96
67966;BMP280;54749;47.850;9.002;2023-04-06T02:26:21;96046.44;;;-1.99
67966;BMP280;54749;47.850;9.002;2023-04-06T02:28:48;96038.97;;;-1.98
67966;BMP280;54749;47.850;9.002;2023-04-06T02:31:16;96058.06;;;-2.03
67966;BMP280;54749;47.850;9.002;2023-04-06T02:33:44;96045.78;;;-2.06
67966;BMP280;54749;47.850;9.002;2023-04-06T02:36:13;96064.06;;;-2.10
67966;BMP280;54749;47.850;9.002;2023-04-06T02:38:40;96034.50;;;-2.15
67966;BMP280;54749;47.850;9.002;2023-04-06T02:41:08;96050.25;;;-2.18
67966;BMP280;54749;47.850;9.002;2023-04-06T02:43:35;96044.50;;;-2.18
67966;BMP280;54749;47.850;9.002;2023-04-06T02:46:08;96043.78;;;-2.22
67966;BMP280;54749;47.850;9.002;2023-04-06T02:48:37;96049.56;;;-2.23
67966;BMP280;54749;47.850;9.002;2023-04-06T02:51:05;96058.66;;;-2.23
67966;BMP280;54749;47.850;9.002;2023-04-06T02:53:33;96062.81;;;-2.25
67966;BMP280;54749;47.850;9.002;2023-04-06T02:56:01;96056.16;;;-2.23
67966;BMP280;54749;47.850;9.002;2023-04-06T02:58:38;96060.22;;;-2.21
67966;BMP280;54749;47.850;9.002;2023-04-06T03:01:05;96059.44;;;-2.21
67966;BMP280;54749;47.850;9.002;2023-04-06T03:03:33;96041.31;;;-2.23
67966;BMP280;54749;47.850;9.002;2023-04-06T03:06:02;96043.00;;;-2.25
67966;BMP280;54749;47.850;9.002;2023-04-06T03:08:30;96050.50;;;-2.27
67966;BMP280;54749;47.850;9.002;2023-04-06T03:10:57;96038.16;;;-2.28
67966;BMP280;54749;47.850;9.002;2023-04-06T03:13:33;96031.56;;;-2.29
67966;BMP280;54749;47.850;9.002;2023-04-06T03:16:01;96051.44;;;-2.32
67966;BMP280;54749;47.850;9.002;2023-04-06T03:18:28;96054.84;;;-2.36
67966;BMP280;54749;47.850;9.002;2023-04-06T03:20:56;96052.47;;;-2.39
67966;BMP280;54749;47.850;9.002;2023-04-06T03:23:30;96049.34;;;-2.46
67966;BMP280;54749;47.850;9.002;2023-04-06T03:26:01;96055.31;;;-2.53
67966;BMP280;54749;47.850;9.002;2023-04-06T03:28:28;96054.53;;;-2.55
67966;BMP280;54749;47.850;9.002;2023-04-06T03:30:59;96065.22;;;-2.53
67966;BMP280;54749;47.850;9.002;2023-04-06T03:33:56;96063.53;;;-2.51
67966;BMP280;54749;47.850;9.002;2023-04-06T03:36:30;96065.22;;;-2.53
67966;BMP280;54749;47.850;9.002;2023-04-06T03:38:58;96049.59;;;-2.55
67966;BMP280;54749;47.850;9.002;2023-04-06T03:41:26;96045.50;;;-2.56
67966;BMP280;54749;47.850;9.002;2023-04-06T03:44:02;96054.59;;;-2.57
67966;BMP280;54749;47.850;9.002;2023-04-06T03:46:29;96056.31;;;-2.60
67966;BMP280;54749;47.850;9.002;2023-04-06T03:48:58;96054.63;;;-2.60
67966;BMP280;54749;47.850;9.002;2023-04-06T03:51:26;96053.84;;;-2.60
67966;BMP280;54749;47.850;9.002;2023-04-06T03:53:54;96057.22;;;-2.64
67966;BMP280;54749;47.850;9.002;2023-04-06T03:56:21;96033.41;;;-2.66
67966;BMP280;54749;47.850;9.002;2023-04-06T03:58:49;96040.84;;;-2.68
67966;BMP280;54749;47.850;9.002;2023-04-06T04:01:20;96052.53;;;-2.73
67966;BMP280;54749;47.850;9.002;2023-04-06T04:03:47;96050.44;;;-2.25
67966;BMP280;54749;47.850;9.002;2023-04-06T04:06:20;96041.50;;;-1.71
67966;BMP280;54749;47.850;9.002;2023-04-06T04:08:47;96041.66;;;-1.77
67966;BMP280;54749;47.850;9.002;2023-04-06T04:11:15;96044.97;;;-2.06
67966;BMP280;54749;47.850;9.002;2023-04-06T04:13:45;96047.19;;;-2.27
67966;BMP280;54749;47.850;9.002;2023-04-06T04:16:13;96035.97;;;-2.38
67966;BMP280;54749;47.850;9.002;2023-04-06T04:18:41;96038.69;;;-2.48
67966;BMP280;54749;47.850;9.002;2023-04-06T04:21:10;96053.78;;;-2.59
67966;BMP280;54749;47.850;9.002;2023-04-06T04:23:37;96038.34;;;-2.66
67966;BMP280;54749;47.850;9.002;2023-04-06T04:26:05;96063.19;;;-2.72
67966;BMP280;54749;47.850;9.002;2023-04-06T04:28:33;96044.41;;;-2.78
67966;BMP280;54749;47.850;9.002;2023-04-06T04:31:01;96016.50;;;-2.82
67966;BMP280;54749;47.850;9.002;2023-04-06T04:33:31;96051.13;;;-2.82
67966;BMP280;54749;47.850;9.002;2023-04-06T04:36:01;96042.09;;;-2.85
67966;BMP280;54749;47.850;9.002;2023-04-06T04:38:35;96039.69;;;-2.86
67966;BMP280;54749;47.850;9.002;2023-04-06T04:41:03;96050.41;;;-2.87
67966;BMP280;54749;47.850;9.002;2023-04-06T04:43:30;96073.53;;;-2.90
67966;BMP280;54749;47.850;9.002;2023-04-06T04:46:01;96058.13;;;-2.99
67966;BMP280;54749;47.850;9.002;2023-04-06T04:48:38;96072.22;;;-3.04
67966;BMP280;54749;47.850;9.002;2023-04-06T04:51:07;96089.53;;;-3.04
67966;BMP280;54749;47.850;9.002;2023-04-06T04:53:56;96087.91;;;-3.05
67966;BMP280;54749;47.850;9.002;2023-04-06T04:56:28;96087.81;;;-3.00
67966;BMP280;54749;47.850;9.002;2023-04-06T04:59:05;96101.69;;;-2.95
67966;BMP280;54749;47.850;9.002;2023-04-06T05:01:36;96089.94;;;-2.86
67966;BMP280;54749;47.850;9.002;2023-04-06T05:04:22;96088.75;;;-2.72
67966;BMP280;54749;47.850;9.002;2023-04-06T05:07:07;96097.38;;;-2.55
67966;BMP280;54749;47.850;9.002;2023-04-06T05:09:37;96080.41;;;-2.35
67966;BMP280;54749;47.850;9.002;2023-04-06T05:12:05;96075.53;;;-2.07
67966;BMP280;54749;47.850;9.002;2023-04-06T05:14:38;96072.13;;;-1.74
67966;BMP280;54749;47.850;9.002;2023-04-06T05:17:11;96062.03;;;-1.40
67966;BMP280;54749;47.850;9.002;2023-04-06T05:19:38;96063.53;;;-1.07
67966;BMP280;54749;47.850;9.002;2023-04-06T05:22:05;96066.78;;;-0.80
67966;BMP280;54749;47.850;9.002;2023-04-06T05:24:35;96058.63;;;-0.58
67966;BMP280;54749;47.850;9.002;2023-04-06T05:27:05;96053.59;;;-0.32
67966;BMP280;54749;47.850;9.002;2023-04-06T05:29:33;96026.75;;;0.01
67966;BMP280;54749;47.850;9.002;2023-04-06T05:32:01;96042.63;;;0.21
67966;BMP280;54749;47.850;9.002;2023-04-06T05:34:29;96051.09;;;0.38
67966;BMP280;54749;47.850;9.002;2023-04-06T05:36:57;96056.81;;;0.63
67966;BMP280;54749;47.850;9.002;2023-04-06T05:39:25;96081.31;;;0.94
67966;BMP280;54749;47.850;9.002;2023-04-06T05:41:53;96081.44;;;1.33
67966;BMP280;54749;47.850;9.002;2023-04-06T05:44:37;96068.28;;;1.70
67966;BMP280;54749;47.850;9.002;2023-04-06T05:47:09;96072.16;;;2.15
67966;BMP280;54749;47.850;9.002;2023-04-06T05:49:38;96072.38;;;2.47
67966;BMP280;54749;47.850;9.002;2023-04-06T05:52:10;96068.84;;;2.88
67966;BMP280;54749;47.850;9.002;2023-04-06T05:54:38;96073.25;;;3.36
67966;BMP280;54749;47.850;9.002;2023-04-06T05:57:06;96066.09;;;3.80
67966;BMP280;54749;47.850;9.002;2023-04-06T05:59:33;96071.13;;;4.28
67966;BMP280;54749;47.850;9.002;2023-04-06T06:02:00;96075.19;;;4.77
67966;BMP280;54749;47.850;9.002;2023-04-06T06:04:31;96050.22;;;5.51
67966;BMP280;54749;47.850;9.002;2023-04-06T06:06:58;96052.97;;;6.19
67966;BMP280;54749;47.850;9.002;2023-04-06T06:09:32;96032.75;;;7.02
67966;BMP280;54749;47.850;9.002;2023-04-06T06:12:14;96034.84;;;7.99
67966;BMP280;54749;47.850;9.002;2023-04-06T06:14:41;96022.63;;;8.90
67966;BMP280;54749;47.850;9.002;2023-04-06T06:17:09;96038.22;;;9.65
67966;BMP280;54749;47.850;9.002;2023-04-06T06:19:36;96009.81;;;10.51
67966;BMP280;54749;47.850;9.002;2023-04-06T06:22:06;96026.44;;;11.18
67966;BMP280;54749;47.850;9.002;2023-04-06T06:24:37;95993.34;;;11.93
67966;BMP280;54749;47.850;9.002;2023-04-06T06:27:05;95997.97;;;12.48
67966;BMP280;54749;47.850;9.002;2023-04-06T06:29:36;96002.69;;;12.72
67966;BMP280;54749;47.850;9.002;2023-04-06T06:32:04;96012.91;;;13.38
67966;BMP280;54749;47.850;9.002;2023-04-06T06:34:31;96007.38;;;13.90
67966;BMP280;54749;47.850;9.002;2023-04-06T06:37:01;95972.88;;;14.70
67966;BMP280;54749;47.850;9.002;2023-04-06T06:39:29;96004.97;;;15.42
67966;BMP280;54749;47.850;9.002;2023-04-06T06:41:57;95975.97;;;16.20
67966;BMP280;54749;47.850;9.002;2023-04-06T06:44:44;95983.09;;;16.58
67966;BMP280;54749;47.850;9.002;2023-04-06T06:47:12;95986.53;;;17.24
67966;BMP280;54749;47.850;9.002;2023-04-06T06:49:38;95991.94;;;17.69
67966;BMP280;54749;47.850;9.002;2023-04-06T06:52:06;95981.47;;;18.03
67966;BMP280;54749;47.850;9.002;2023-04-06T06:54:33;95995.91;;;18.35
67966;BMP280;54749;47.850;9.002;2023-04-06T06:57:00;96008.66;;;18.58
67966;BMP280;54749;47.850;9.002;2023-04-06T06:59:27;95993.19;;;19.21
67966;BMP280;54749;47.850;9.002;2023-04-06T07:01:55;95972.59;;;19.52
67966;BMP280;54749;47.850;9.002;2023-04-06T07:04:22;95984.47;;;19.97
67966;BMP280;54749;47.850;9.002;2023-04-06T07:06:50;96014.56;;;20.54
67966;BMP280;54749;47.850;9.002;2023-04-06T07:09:17;96026.72;;;20.60
67966;BMP280;54749;47.850;9.002;2023-04-06T07:11:44;96018.03;;;20.61
67966;BMP280;54749;47.850;9.002;2023-04-06T07:14:11;96024.19;;;21.10
67966;BMP280;54749;47.850;9.002;2023-04-06T07:16:39;96026.72;;;21.52
67966;BMP280;54749;47.850;9.002;2023-04-06T07:19:06;96018.25;;;22.00
67966;BMP280;54749;47.850;9.002;2023-04-06T07:21:33;96025.22;;;22.41
67966;BMP280;54749;47.850;9.002;2023-04-06T07:24:01;96009.16;;;23.13
67966;BMP280;54749;47.850;9.002;2023-04-06T07:26:28;96016.88;;;23.33
67966;BMP280;54749;47.850;9.002;2023-04-06T07:28:56;96018.16;;;23.50
67966;BMP280;54749;47.850;9.002;2023-04-06T07:31:24;96008.53;;;24.23
67966;BMP280;54749;47.850;9.002;2023-04-06T07:33:52;96018.16;;;24.60
67966;BMP280;54749;47.850;9.002;2023-04-06T07:36:20;96011.41;;;24.91
67966;BMP280;54749;47.850;9.002;2023-04-06T07:38:47;96016.53;;;25.16
67966;BMP280;54749;47.850;9.002;2023-04-06T07:41:14;96014.53;;;25.43
67966;BMP280;54749;47.850;9.002;2023-04-06T07:43:42;96025.59;;;25.88
67966;BMP280;54749;47.850;9.002;2023-04-06T07:46:09;96029.06;;;25.57
67966;BMP280;54749;47.850;9.002;2023-04-06T07:48:36;96030.28;;;26.03
67966;BMP280;54749;47.850;9.002;2023-04-06T07:51:07;96028.75;;;26.93
67966;BMP280;54749;47.850;9.002;2023-04-06T07:53:37;96011.50;;;27.28
67966;BMP280;54749;47.850;9.002;2023-04-06T07:56:05;96023.38;;;27.59
67966;BMP280;54749;47.850;9.002;2023-04-06T07:58:32;96014.81;;;28.23
67966;BMP280;54749;47.850;9.002;2023-04-06T08:00:59;96018.16;;;28.30
67966;BMP280;54749;47.850;9.002;2023-04-06T08:03:26;96021.84;;;27.52
67966;BMP280;54749;47.850;9.002;2023-04-06T08:05:53;96017.75;;;27.21
67966;BMP280;54749;47.850;9.002;2023-04-06T08:08:20;96028.63;;;26.15
67966;BMP280;54749;47.850;9.002;2023-04-06T08:10:48;96045.06;;;25.22
67966;BMP280;54749;47.850;9.002;2023-04-06T08:13:15;96035.28;;;25.30
67966;BMP280;54749;47.850;9.002;2023-04-06T08:15:43;96030.78;;;25.88
67966;BMP280;54749;47.850;9.002;2023-04-06T08:18:10;96040.72;;;25.97
67966;BMP280;54749;47.850;9.002;2023-04-06T08:20:39;96036.22;;;25.55
67966;BMP280;54749;47.850;9.002;2023-04-06T08:23:06;96047.13;;;25.88
67966;BMP280;54749;47.850;9.002;2023-04-06T08:25:35;96024.72;;;26.49
67966;BMP280;54749;47.850;9.002;2023-04-06T08:28:03;96029.69;;;27.05
67966;BMP280;54749;47.850;9.002;2023-04-06T08:30:30;96032.69;;;27.84
67966;BMP280;54749;47.850;9.002;2023-04-06T08:32:58;96028.03;;;27.34
67966;BMP280;54749;47.850;9.002;2023-04-06T08:35:26;96032.38;;;26.92
67966;BMP280;54749;47.850;9.002;2023-04-06T08:37:53;96031.06;;;27.31
67966;BMP280;54749;47.850;9.002;2023-04-06T08:40:20;96013.34;;;27.98
67966;BMP280;54749;47.850;9.002;2023-04-06T08:42:50;96033.53;;;28.31
67966;BMP280;54749;47.850;9.002;2023-04-06T08:45:19;96033.13;;;27.99
67966;BMP280;54749;47.850;9.002;2023-04-06T08:47:49;96031.06;;;28.36
67966;BMP280;54749;47.850;9.002;2023-04-06T08:50:17;96040.13;;;27.81
67966;BMP280;54749;47.850;9.002;2023-04-06T08:52:47;96039.63;;;27.73
67966;BMP280;54749;47.850;9.002;2023-04-06T08:55:15;96034.72;;;27.41
67966;BMP280;54749;47.850;9.002;2023-04-06T08:57:42;96034.44;;;27.07
67966;BMP280;54749;47.850;9.002;2023-04-06T09:00:11;96033.81;;;27.36
67966;BMP280;54749;47.850;9.002;2023-04-06T09:02:40;96033.13;;;27.81
67966;BMP280;54749;47.850;9.002;2023-04-06T09:05:10;96021.63;;;28.52
67966;BMP280;54749;47.850;9.002;2023-04-06T09:07:37;96008.44;;;29.27
67966;BMP280;54749;47.850;9.002;2023-04-06T09:10:05;96013.75;;;29.54
67966;BMP280;54749;47.850;9.002;2023-04-06T09:12:33;96020.41;;;29.06
67966;BMP280;54749;47.850;9.002;2023-04-06T09:15:00;96005.13;;;29.20
67966;BMP280;54749;47.850;9.002;2023-04-06T09:17:32;96002.63;;;30.20
67966;BMP280;54749;47.850;9.002;2023-04-06T09:20:01;96004.59;;;30.67
67966;BMP280;54749;47.850;9.002;2023-04-06T09:22:37;96009.72;;;30.62
67966;BMP280;54749;47.850;9.002;2023-04-06T09:25:05;95999.38;;;30.83
67966;BMP280;54749;47.850;9.002;2023-04-06T09:27:34;96007.13;;;31.38
67966;BMP280;54749;47.850;9.002;2023-04-06T09:30:06;96017.44;;;30.42
67966;BMP280;54749;47.850;9.002;2023-04-06T09:33:03;96014.53;;;29.44
67966;BMP280;54749;47.850;9.002;2023-04-06T09:35:31;96007.66;;;30.10
67966;BMP280;54749;47.850;9.002;2023-04-06T09:38:10;96002.75;;;30.13
67966;BMP280;54749;47.850;9.002;2023-04-06T09:40:50;95999.94;;;30.15
67966;BMP280;54749;47.850;9.002;2023-04-06T09:43:27;96007.09;;;29.36
67966;BMP280;54749;47.850;9.002;2023-04-06T09:46:00;96003.00;;;29.51
67966;BMP280;54749;47.850;9.002;2023-04-06T09:48:28;95990.06;;;30.17
67966;BMP280;54749;47.850;9.002;2023-04-06T09:51:00;95983.53;;;31.17
67966;BMP280;54749;47.850;9.002;2023-04-06T09:53:31;95987.44;;;31.35
67966;BMP280;54749;47.850;9.002;2023-04-06T09:56:02;95982.34;;;31.61
67966;BMP280;54749;47.850;9.002;2023-04-06T09:58:34;95975.34;;;31.30
67966;BMP280;54749;47.850;9.002;2023-04-06T10:01:08;95989.72;;;30.84
67966;BMP280;54749;47.850;9.002;2023-04-06T10:03:45;95976.97;;;30.55
67966;BMP280;54749;47.850;9.002;2023-04-06T10:06:15;95980.31;;;29.74
67966;BMP280;54749;47.850;9.002;2023-04-06T10:08:46;95987.38;;;29.40
67966;BMP280;54749;47.850;9.002;2023-04-06T10:11:14;95991.59;;;29.79
67966;BMP280;54749;47.850;9.002;2023-04-06T10:13:42;95973.13;;;30.30
67966;BMP280;54749;47.850;9.002;2023-04-06T10:16:10;95970.03;;;30.06
67966;BMP280;54749;47.850;9.002;2023-04-06T10:18:39;95984.09;;;28.48
67966;BMP280;54749;47.850;9.002;2023-04-06T10:21:11;95979.53;;;28.84
67966;BMP280;54749;47.850;9.002;2023-04-06T10:24:01;95962.25;;;29.95
67966;BMP280;54749;47.850;9.002;2023-04-06T10:26:28;95965.56;;;28.67
67966;BMP280;54749;47.850;9.002;2023-04-06T10:29:03;95975.63;;;26.71
67966;BMP280;54749;47.850;9.002;2023-04-06T10:31:31;95982.28;;;27.33
67966;BMP280;54749;47.850;9.002;2023-04-06T10:34:01;95976.09;;;27.86
67966;BMP280;54749;47.850;9.002;2023-04-06T10:36:33;95987.13;;;27.29
67966;BMP280;54749;47.850;9.002;2023-04-06T10:39:03;95973.94;;;27.31
67966;BMP280;54749;47.850;9.002;2023-04-06T10:41:56;95977.69;;;28.05
67966;BMP280;54749;47.850;9.002;2023-04-06T10:44:42;95975.41;;;27.44
67966;BMP280;54749;47.850;9.002;2023-04-06T10:47:16;95968.47;;;28.20
67966;BMP280;54749;47.850;9.002;2023-04-06T10:49:44;95964.59;;;28.40
67966;BMP280;54749;47.850;9.002;2023-04-06T10:52:11;95963.44;;;27.20
67966;BMP280;54749;47.850;9.002;2023-04-06T10:54:41;95963.22;;;28.09
67966;BMP280;54749;47.850;9.002;2023-04-06T10:57:10;95952.75;;;28.66
67966;BMP280;54749;47.850;9.002;2023-04-06T10:59:41;95964.09;;;27.15
67966;BMP280;54749;47.850;9.002;2023-04-06T11:02:19;95964.13;;;27.85
67966;BMP280;54749;47.850;9.002;2023-04-06T11:04:56;95968.34;;;28.44
67966;BMP280;54749;47.850;9.002;2023-04-06T11:07:25;95969.44;;;28.08
67966;BMP280;54749;47.850;9.002;2023-04-06T11:09:52;95978.94;;;28.13
67966;BMP280;54749;47.850;9.002;2023-04-06T11:12:41;95981.97;;;24.79
67966;BMP280;54749;47.850;9.002;2023-04-06T11:15:08;95990.53;;;23.44
67966;BMP280;54749;47.850;9.002;2023-04-06T11:17:36;95981.25;;;22.01
67966;BMP280;54749;47.850;9.002;2023-04-06T11:20:04;96010.22;;;20.90
67966;BMP280;54749;47.850;9.002;2023-04-06T11:22:51;96000.88;;;20.75
67966;BMP280;54749;47.850;9.002;2023-04-06T11:25:18;95995.50;;;20.05
67966;BMP280;54749;47.850;9.002;2023-04-06T11:27:46;95997.84;;;20.14
67966;BMP280;54749;47.850;9.002;2023-04-06T11:30:14;96004.31;;;19.43
67966;BMP280;54749;47.850;9.002;2023-04-06T11:32:44;96001.41;;;19.54
67966;BMP280;54749;47.850;9.002;2023-04-06T11:35:22;96000.66;;;18.77
67966;BMP280;54749;47.850;9.002;2023-04-06T11:37:50;95998.41;;;18.58
67966;BMP280;54749;47.850;9.002;2023-04-06T11:40:22;95990.91;;;18.41
67966;BMP280;54749;47.850;9.002;2023-04-06T11:42:53;95993.97;;;18.53
67966;BMP280;54749;47.850;9.002;2023-04-06T11:45:21;95993.63;;;18.24
67966;BMP280;54749;47.850;9.002;2023-04-06T11:47:59;95988.34;;;18.10
67966;BMP280;54749;47.850;9.002;2023-04-06T11:50:32;95981.41;;;17.80
67966;BMP280;54749;47.850;9.002;2023-04-06T11:53:01;95971.66;;;17.75
67966;BMP280;54749;47.850;9.002;2023-04-06T11:55:37;95965.81;;;17.83
67966;BMP280;54749;47.850;9.002;2023-04-06T11:58:05;95963.16;;;17.59
67966;BMP280;54749;47.850;9.002;2023-04-06T12:00:33;95966.31;;;17.46
67966;BMP280;54749;47.850;9.002;2023-04-06T12:03:01;95965.13;;;17.17
67966;BMP280;54749;47.850;9.002;2023-04-06T12:05:29;95972.75;;;16.35
67966;BMP280;54749;47.850;9.002;2023-04-06T12:07:56;95977.09;;;16.17
67966;BMP280;54749;47.850;9.002;2023-04-06T12:10:28;95968.41;;;16.11
67966;BMP280;54749;47.850;9.002;2023-04-06T12:12:56;95964.59;;;15.80
67966;BMP280;54749;47.850;9.002;2023-04-06T12:15:23;95971.59;;;15.44
67966;BMP280;54749;47.850;9.002;2023-04-06T12:17:50;95967.53;;;15.85
67966;BMP280;54749;47.850;9.002;2023-04-06T12:20:17;95959.19;;;15.76
67966;BMP280;54749;47.850;9.002;2023-04-06T12:22:53;95959.81;;;15.77
67966;BMP280;54749;47.850;9.002;2023-04-06T12:25:20;95953.06;;;16.03
67966;BMP280;54749;47.850;9.002;2023-04-06T12:27:47;95959.88;;;15.85
67966;BMP280;54749;47.850;9.002;2023-04-06T12:30:15;95948.69;;;16.13
67966;BMP280;54749;47.850;9.002;2023-04-06T12:32:42;95929.03;;;16.30
67966;BMP280;54749;47.850;9.002;2023-04-06T12:35:09;95945.81;;;16.15
67966;BMP280;54749;47.850;9.002;2023-04-06T12:37:38;95953.41;;;15.74
67966;BMP280;54749;47.850;9.002;2023-04-06T12:40:06;95950.13;;;16.15
67966;BMP280;54749;47.850;9.002;2023-04-06T12:42:33;95939.72;;;16.33
67966;BMP280;54749;47.850;9.002;2023-04-06T12:45:00;95938.84;;;16.42
67966;BMP280;54749;47.850;9.002;2023-04-06T12:47:27;95940.03;;;16.06
67966;BMP280;54749;47.850;9.002;2023-04-06T12:49:55;95942.59;;;16.06
67966;BMP280;54749;47.850;9.002;2023-04-06T12:52:23;95947.50;;;16.07
67966;BMP280;54749;47.850;9.002;2023-04-06T12:54:50;95948.25;;;16.00
67966;BMP280;54749;47.850;9.002;2023-04-06T12:57:18;95949.13;;;16.08
67966;BMP280;54749;47.850;9.002;2023-04-06T12:59:45;95940.59;;;16.17
67966;BMP280;54749;47.850;9.002;2023-04-06T13:02:13;95944.25;;;16.14
67966;BMP280;54749;47.850;9.002;2023-04-06T13:04:40;95942.72;;;16.04
67966;BMP280;54749;47.850;9.002;2023-04-06T13:07:08;95941.31;;;15.93
67966;BMP280;54749;47.850;9.002;2023-04-06T13:09:35;95942.47;;;15.81
67966;BMP280;54749;47.850;9.002;2023-04-06T13:12:03;95939.28;;;15.62
67966;BMP280;54749;47.850;9.002;2023-04-06T13:14:30;95935.78;;;15.63
67966;BMP280;54749;47.850;9.002;2023-04-06T13:16:59;95935.06;;;15.36
67966;BMP280;54749;47.850;9.002;2023-04-06T13:19:26;95929.66;;;15.22
67966;BMP280;54749;47.850;9.002;2023-04-06T13:21:54;95936.13;;;15.34
67966;BMP280;54749;47.850;9.002;2023-04-06T13:24:21;95922.09;;;15.30
67966;BMP280;54749;47.850;9.002;2023-04-06T13:26:49;95920.31;;;15.13
67966;BMP280;54749;47.850;9.002;2023-04-06T13:29:16;95921.34;;;15.20
67966;BMP280;54749;47.850;9.002;2023-04-06T13:31:43;95927.25;;;14.94
67966;BMP280;54749;47.850;9.002;2023-04-06T13:34:11;95919.91;;;14.82
67966;BMP280;54749;47.850;9.002;2023-04-06T13:36:38;95926.09;;;14.80
67966;BMP280;54749;47.850;9.002;2023-04-06T13:39:08;95928.50;;;14.81
67966;BMP280;54749;47.850;9.002;2023-04-06T13:41:35;95922.13;;;14.68
67966;BMP280;54749;47.850;9.002;2023-04-06T13:44:02;95915.97;;;14.71
67966;BMP280;54749;47.850;9.002;2023-04-06T13:46:29;95916.25;;;14.94
67966;BMP280;54749;47.850;9.002;2023-04-06T13:48:56;95918.16;;;15.18
67966;BMP280;54749;47.850;9.002;2023-04-06T13:51:23;95916.19;;;15.29
67966;BMP280;54749;47.850;9.002;2023-04-06T13:53:50;95908.72;;;15.45
67966;BMP280;54749;47.850;9.002;2023-04-06T13:56:19;95912.56;;;15.49
67966;BMP280;54749;47.850;9.002;2023-04-06T13:58:46;95899.69;;;15.50
67966;BMP280;54749;47.850;9.002;2023-04-06T14:01:14;95906.38;;;15.68
67966;BMP280;54749;47.850;9.002;2023-04-06T14:03:41;95895.97;;;15.79
67966;BMP280;54749;47.850;9.002;2023-04-06T14:06:12;95893.41;;;15.96
67966;BMP280;54749;47.850;9.002;2023-04-06T14:08:42;95903.63;;;15.96
67966;BMP280;54749;47.850;9.002;2023-04-06T14:11:13;95900.28;;;15.61
67966;BMP280;54749;47.850;9.002;2023-04-06T14:13:40;95908.13;;;14.81
67966;BMP280;54749;47.850;9.002;2023-04-06T14:16:09;95903.72;;;14.83
67966;BMP280;54749;47.850;9.002;2023-04-06T14:18:36;95911.00;;;15.05
67966;BMP280;54749;47.850;9.002;2023-04-06T14:21:04;95904.06;;;14.97
67966;BMP280;54749;47.850;9.002;2023-04-06T14:23:31;95902.13;;;15.08